createdAt,value
2023-03-02T00:02:54.253Z,24.55
2023-03-02T00:07:58.006Z,22.67
2023-03-02T00:12:59.691Z,25.95
2023-03-02T00:18:01.237Z,25.00
2023-03-02T00:23:02.744Z,26.25
2023-03-02T00:28:04.442Z,25.92
2023-03-02T00:33:06.026Z,24.00
2023-03-02T00:38:07.948Z,27.20
2023-03-02T00:43:09.482Z,29.67
2023-03-02T00:48:11.036Z,24.20
2023-03-02T00:53:12.678Z,28.27
2023-03-02T00:58:14.187Z,25.23
2023-03-02T01:03:16.089Z,24.80
2023-03-02T01:08:17.705Z,28.13
2023-03-02T01:13:21.003Z,24.45
2023-03-02T01:24:51.294Z,26.42
2023-03-02T01:29:52.946Z,25.23
2023-03-02T01:34:55.063Z,28.23
2023-03-02T01:39:56.645Z,29.70
2023-03-02T01:44:58.406Z,24.98
2023-03-02T01:50:18.926Z,27.25
2023-03-02T01:55:24.954Z,26.92
2023-03-02T02:00:31.862Z,22.00
2023-03-02T02:05:33.728Z,25.42
2023-03-02T02:10:35.657Z,24.88
2023-03-02T02:15:40.188Z,29.73
2023-03-02T02:20:44.785Z,30.58
2023-03-02T02:25:52.519Z,29.17
2023-03-02T02:31:18.998Z,26.95
2023-03-02T02:36:26.370Z,26.58
2023-03-02T02:41:34.186Z,28.95
2023-03-02T02:46:36.209Z,28.88
2023-03-02T02:51:37.852Z,28.92
2023-03-02T02:56:39.704Z,29.90
2023-03-02T03:01:45.280Z,30.15
2023-03-02T03:06:56.869Z,32.05
2023-03-02T03:12:16.561Z,28.42
2023-03-02T03:17:18.717Z,30.92
2023-03-02T03:22:35.150Z,29.00
2023-03-02T03:27:37.567Z,33.30
2023-03-02T03:32:40.936Z,33.03
2023-03-02T03:37:43.098Z,28.73
2023-03-02T03:42:45.945Z,32.40
2023-03-02T03:47:47.970Z,24.88
2023-03-02T03:52:49.877Z,29.08
2023-03-02T03:57:56.869Z,29.75
2023-03-02T04:02:59.119Z,27.67
2023-03-02T04:08:02.701Z,31.40
2023-03-02T04:13:05.908Z,28.98
2023-03-02T04:18:08.820Z,28.20
2023-03-02T04:23:11.556Z,30.40
2023-03-02T04:28:17.107Z,30.17
2023-03-02T04:33:20.119Z,31.27
2023-03-02T04:38:23.380Z,27.02
2023-03-02T04:43:26.012Z,34.13
2023-03-02T04:48:27.613Z,29.85
2023-03-02T04:53:29.238Z,30.85
2023-03-02T04:58:30.934Z,28.05
2023-03-02T05:03:32.668Z,33.33
2023-03-02T05:08:34.809Z,35.42
2023-03-02T05:13:36.492Z,32.03
2023-03-02T05:18:38.090Z,32.35
2023-03-02T05:23:40.187Z,33.97
2023-03-02T05:28:42.239Z,32.90
2023-03-02T05:33:43.864Z,30.27
2023-03-02T05:38:45.372Z,32.38
2023-03-02T05:43:47.126Z,30.73
2023-03-02T05:48:49.475Z,31.98
2023-03-02T05:53:51.175Z,33.88
2023-03-02T05:58:52.681Z,35.45
2023-03-02T06:03:54.136Z,37.13
2023-03-02T06:08:55.678Z,33.92
2023-03-02T06:13:57.294Z,30.85
2023-03-02T06:18:59.269Z,30.52
2023-03-02T06:24:00.732Z,30.85
2023-03-02T06:29:02.237Z,42.50
2023-03-02T06:34:03.746Z,39.00
2023-03-02T06:39:06.786Z,39.85
2023-03-02T06:44:08.390Z,37.03
2023-03-02T06:49:12.969Z,32.10
2023-03-02T06:54:15.397Z,35.17
2023-03-02T06:59:16.939Z,31.88
2023-03-02T07:04:18.599Z,33.72
2023-03-02T07:09:20.291Z,32.65
2023-03-02T07:14:21.750Z,30.73
2023-03-02T07:19:23.334Z,35.65
2023-03-02T07:24:24.984Z,30.33
2023-03-02T07:29:26.638Z,29.52
2023-03-02T07:34:28.368Z,33.15
2023-03-02T07:39:30.123Z,34.83
2023-03-02T07:44:31.759Z,44.38
2023-03-02T07:49:33.308Z,33.20
2023-03-02T07:54:34.815Z,27.92
2023-03-02T07:59:36.407Z,29.92
2023-03-02T08:04:37.984Z,32.08
2023-03-02T08:09:40.135Z,32.30
2023-03-02T08:14:41.665Z,36.83
2023-03-02T08:19:43.213Z,33.42
2023-03-02T08:24:44.775Z,34.72
2023-03-02T08:29:46.308Z,32.13
2023-03-02T08:34:47.822Z,34.78
2023-03-02T08:39:49.350Z,36.92
2023-03-02T08:44:50.903Z,32.08
2023-03-02T08:49:52.421Z,32.60
2023-03-02T08:54:54.020Z,40.03
2023-03-02T08:59:55.756Z,40.45
2023-03-02T09:04:57.306Z,40.53
2023-03-02T09:09:58.778Z,38.13
2023-03-02T09:15:00.338Z,37.75
2023-03-02T09:20:01.856Z,38.17
2023-03-02T09:25:05.043Z,36.17
2023-03-02T09:30:07.693Z,34.25
2023-03-02T09:35:09.652Z,37.97
2023-03-02T09:40:33.153Z,39.45
2023-03-02T09:45:54.290Z,41.55
2023-03-02T09:51:22.314Z,41.88
2023-03-02T09:56:24.007Z,39.47
2023-03-02T10:01:37.176Z,40.17
2023-03-02T10:06:38.741Z,41.20
2023-03-02T10:12:00.244Z,37.28
2023-03-02T10:17:26.878Z,42.10
2023-03-02T10:22:52.731Z,41.00
2023-03-02T10:28:05.590Z,34.17
2023-03-02T10:33:15.043Z,36.58
2023-03-02T10:38:22.612Z,38.05
2023-03-02T10:43:31.575Z,44.58
2023-03-02T10:48:33.454Z,35.83
2023-03-02T10:53:34.956Z,39.15
2023-03-02T10:58:36.434Z,34.80
2023-03-02T11:03:37.998Z,40.75
2023-03-02T11:08:39.534Z,42.53
2023-03-02T11:13:41.066Z,39.03
2023-03-02T11:18:48.444Z,39.75
2023-03-02T11:24:04.982Z,37.28
2023-03-02T11:29:13.511Z,41.70
2023-03-02T11:34:27.177Z,42.35
2023-03-02T11:39:55.080Z,39.72
2023-03-02T11:45:01.809Z,37.00
2023-03-02T11:50:05.749Z,38.35
2023-03-02T11:55:12.969Z,41.60
2023-03-02T12:00:42.497Z,36.60
2023-03-02T12:05:47.310Z,34.83
2023-03-02T12:11:07.645Z,40.53
2023-03-02T12:16:18.288Z,37.90
2023-03-02T12:21:21.929Z,35.72
2023-03-02T12:26:28.406Z,36.83
2023-03-02T12:31:55.389Z,35.42
2023-03-02T12:37:02.392Z,42.67
2023-03-02T12:42:38.128Z,38.78
2023-03-02T12:47:44.720Z,37.80
2023-03-02T12:52:57.513Z,36.55
2023-03-02T12:58:01.037Z,38.83
2023-03-02T13:03:03.208Z,35.83
2023-03-02T13:08:04.892Z,36.22
2023-03-02T13:13:18.750Z,36.72
2023-03-02T13:18:26.170Z,41.20
2023-03-02T13:23:30.195Z,43.13
2023-03-02T13:28:37.793Z,39.80
2023-03-02T13:33:44.917Z,37.53
2023-03-02T13:38:50.139Z,39.10
2023-03-02T13:43:51.717Z,42.25
2023-03-02T13:49:09.040Z,47.10
2023-03-02T13:54:15.117Z,42.83
2023-03-02T13:59:18.576Z,56.00
2023-03-02T14:04:22.279Z,41.45
2023-03-02T14:09:23.821Z,41.90
2023-03-02T14:14:27.579Z,39.83
2023-03-02T14:19:29.208Z,35.67
2023-03-02T14:24:30.750Z,36.42
2023-03-02T14:29:33.435Z,34.65
2023-03-02T14:34:37.052Z,37.10
2023-03-02T14:39:40.988Z,37.25
2023-03-02T14:44:43.564Z,42.65
2023-03-02T14:49:45.561Z,44.33
2023-03-02T14:54:54.143Z,40.08
2023-03-02T14:59:56.726Z,43.38
2023-03-02T15:04:58.286Z,36.05
2023-03-02T15:09:59.920Z,40.72
2023-03-02T15:15:01.734Z,41.65
2023-03-02T15:20:03.885Z,41.58
2023-03-02T15:25:05.794Z,38.90
2023-03-02T15:30:07.977Z,38.20
2023-03-02T15:35:09.694Z,35.42
2023-03-02T15:40:11.911Z,34.63
2023-03-02T15:45:13.479Z,38.03
2023-03-02T15:50:15.094Z,35.47
2023-03-02T15:55:16.713Z,36.50
2023-03-02T16:00:18.721Z,40.42
2023-03-02T16:05:20.237Z,38.65
2023-03-02T16:10:21.752Z,37.42
2023-03-02T16:15:23.307Z,33.00
2023-03-02T16:20:24.803Z,35.50
2023-03-02T16:25:26.294Z,35.72
2023-03-02T16:30:28.771Z,37.13
2023-03-02T16:35:32.818Z,38.08
2023-03-02T16:40:34.375Z,35.92
2023-03-02T16:45:36.692Z,34.55
2023-03-02T16:50:38.241Z,34.95
2023-03-02T16:55:39.752Z,37.22
2023-03-02T17:00:41.272Z,35.00
2023-03-02T17:05:43.414Z,31.85
2023-03-02T17:10:44.989Z,32.78
2023-03-02T17:15:46.480Z,35.70
2023-03-02T17:20:51.707Z,38.83
2023-03-02T17:25:53.773Z,34.38
2023-03-02T17:30:55.557Z,39.33
2023-03-02T17:35:57.150Z,35.35
2023-03-02T17:41:02.146Z,35.55
2023-03-02T17:46:21.273Z,28.77
2023-03-02T17:51:24.403Z,35.77
2023-03-02T17:56:27.892Z,35.47
2023-03-02T18:01:29.772Z,35.92
2023-03-02T18:06:31.322Z,36.17
2023-03-02T18:11:33.022Z,32.22
2023-03-02T18:16:34.882Z,37.35
2023-03-02T18:21:37.078Z,44.70
2023-03-02T18:26:38.605Z,35.78
2023-03-02T18:31:40.184Z,38.65
2023-03-02T18:36:41.807Z,34.45
2023-03-02T18:41:43.406Z,36.53
2023-03-02T18:46:45.030Z,32.63
2023-03-02T18:51:46.767Z,36.65
2023-03-02T18:56:48.263Z,33.92
2023-03-02T19:01:49.854Z,35.38
2023-03-02T19:06:51.884Z,34.80
2023-03-02T19:11:53.618Z,37.42
2023-03-02T19:16:55.105Z,39.08
2023-03-02T19:21:56.643Z,33.95
2023-03-02T19:26:58.278Z,39.33
2023-03-02T19:32:00.017Z,40.25
2023-03-02T19:37:01.559Z,36.95
2023-03-02T19:42:03.394Z,41.67
2023-03-02T19:47:04.925Z,46.33
2023-03-02T19:52:06.397Z,37.90
2023-03-02T19:57:07.912Z,36.03
2023-03-02T20:02:09.437Z,35.83
2023-03-02T20:07:10.951Z,33.35
2023-03-02T20:12:12.531Z,31.80
2023-03-02T20:17:13.994Z,33.92
2023-03-02T20:22:16.426Z,33.10
2023-03-02T20:27:18.191Z,36.15
2023-03-02T20:32:20.053Z,37.80
2023-03-02T20:37:21.610Z,39.90
2023-03-02T20:42:23.236Z,35.70
2023-03-02T20:47:24.815Z,34.63
2023-03-02T20:52:26.878Z,40.35
2023-03-02T20:57:28.409Z,33.45
2023-03-02T21:02:29.882Z,41.78
2023-03-02T21:07:31.458Z,41.00
2023-03-02T21:12:33.037Z,40.42
2023-03-02T21:17:34.766Z,37.63
2023-03-02T21:22:36.210Z,42.33
2023-03-02T21:27:38.775Z,45.22
2023-03-02T21:32:40.299Z,38.00
2023-03-02T21:37:43.202Z,41.17
2023-03-02T21:42:45.103Z,39.88
2023-03-02T21:47:46.622Z,35.65
2023-03-02T21:52:48.631Z,39.03
2023-03-02T21:57:50.161Z,38.30
2023-03-02T22:02:51.739Z,42.47
2023-03-02T22:07:53.381Z,41.03
2023-03-02T22:13:04.401Z,35.15
2023-03-02T22:18:11.608Z,41.08
2023-03-02T22:23:15.241Z,34.92
2023-03-02T22:28:23.189Z,34.50
2023-03-02T22:33:28.118Z,36.60
2023-03-02T22:38:30.672Z,38.10
2023-03-02T22:43:34.973Z,37.17
2023-03-02T22:48:38.056Z,36.70
2023-03-02T22:53:46.443Z,41.22
2023-03-02T22:58:50.276Z,39.40
2023-03-02T23:04:08.373Z,33.83
2023-03-02T23:09:09.861Z,37.78
2023-03-02T23:14:18.485Z,36.08
2023-03-02T23:19:20.546Z,39.20
2023-03-02T23:24:22.115Z,42.05
2023-03-02T23:29:23.683Z,38.53
2023-03-02T23:34:25.237Z,41.63
2023-03-02T23:39:26.955Z,42.53
2023-03-02T23:44:28.429Z,39.75
2023-03-02T23:49:29.935Z,43.17
2023-03-02T23:54:31.401Z,45.65
2023-03-02T23:59:32.875Z,38.22
